Time;durP1;ratioP1;P1;durP2;ratioP2;P2;SDS_P1;SDS_P2;PMS_P1;PMS_P2;Temp;Humidity;BMP_temperature;BMP_pressure;BME280_temperature;BME280_humidity;BME280_pressure;Samples;Min_cycle;Max_cycle;Signal;HPM_P1;HPM_P2
2022/06/19 07:59:02;;;;;;;7.22;2.40;;;;;;;16.38;71.44;101112.94;5177673;27;4065179;-73
2022/06/19 08:01:33;;;;;;;9.27;3.03;;;;;;;16.16;71.15;101103.47;5313949;28;20467;-73
2022/06/19 08:04:04;;;;;;;9.65;2.50;;;;;;;16.17;73.67;101065.09;5320893;28;20114;-73
2022/06/19 08:06:36;;;;;;;7.40;3.33;;;;;;;15.99;77.80;101051.03;5319108;28;20530;-72
2022/06/19 08:09:07;;;;;;;7.57;2.30;;;;;;;15.96;74.35;101046.09;5304425;28;20048;-72
2022/06/19 08:11:38;;;;;;;7.35;2.38;;;;;;;16.09;74.83;101022.78;5300252;28;20058;-73
2022/06/19 08:14:10;;;;;;;11.65;2.63;;;;;;;15.86;76.26;101004.41;5300999;28;20028;-72
2022/06/19 08:16:41;;;;;;;8.30;2.80;;;;;;;16.12;75.46;101068.06;5301016;28;20028;-72
2022/06/19 08:19:12;;;;;;;14.27;3.42;;;;;;;16.25;73.76;101075.50;5300067;28;20545;-72
2022/06/19 08:21:44;;;;;;;9.27;2.92;;;;;;;15.99;75.74;101014.66;5303859;28;20031;-73
2022/06/19 08:24:15;;;;;;;9.65;2.78;;;;;;;15.84;77.79;101006.69;5300990;28;20526;-73
2022/06/19 08:26:49;;;;;;;11.23;3.38;;;;;;;15.95;77.57;100999.69;5299892;28;20396;-73
2022/06/19 08:29:21;;;;;;;9.60;3.22;;;;;;;16.16;79.40;100990.72;5300757;28;20069;-71
2022/06/19 08:31:52;;;;;;;12.55;3.35;;;;;;;16.07;78.70;100988.69;5300532;28;20468;-73
2022/06/19 08:34:24;;;;;;;8.73;2.63;;;;;;;16.13;77.30;100988.56;5305182;28;20077;-73
2022/06/19 08:36:57;;;;;;;9.48;3.05;;;;;;;16.12;79.40;100972.94;5311129;28;20406;-72
2022/06/19 08:39:29;;;;;;;11.30;3.30;;;;;;;16.03;79.69;100964.53;5294809;28;20413;-73
2022/06/19 08:42:21;;;;;;;10.50;2.95;;;;;;;16.02;78.63;100958.06;5308248;28;20024;-72
2022/06/19 08:45:27;;;;;;;13.55;3.47;;;;;;;16.08;81.41;100923.22;5319641;28;20036;-74
2022/06/19 08:48:13;;;;;;;12.68;3.22;;;;;;;15.99;81.20;100880.41;5320430;28;20020;-72
2022/06/19 08:50:47;;;;;;;;;;;;;;;16.20;79.11;100890.97;5322176;28;20114;-72
2022/06/19 08:53:47;;;;;;;9.70;3.25;;;;;;;16.20;80.47;100916.16;5305766;28;19912;-72
2022/06/19 08:56:28;;;;;;;6.35;3.25;;;;;;;16.24;80.70;100936.75;5299987;28;20039;-72
2022/06/19 08:59:17;;;;;;;10.57;3.25;;;;;;;16.40;81.03;100940.72;5300932;28;20052;-71
2022/06/19 09:01:49;;;;;;;11.05;2.80;;;;;;;16.25;80.17;100938.41;5320550;28;20046;-72
2022/06/19 09:07:54;;;;;;;11.38;3.30;;;;;;;16.44;79.23;100972.53;5319867;28;20032;-72
2022/06/19 09:10:39;;;;;;;6.75;2.65;;;;;;;16.46;79.18;100989.81;5300630;28;20028;-72
2022/06/19 09:13:47;;;;;;;9.50;3.42;;;;;;;16.52;78.15;101010.91;5295347;28;20084;-72
2022/06/19 09:16:34;;;;;;;6.03;2.92;;;;;;;16.61;76.95;101054.88;5306019;28;20131;-72
2022/06/19 09:19:15;;;;;;;6.88;2.85;;;;;;;16.61;74.75;101074.50;5307090;28;20040;-73
2022/06/19 09:21:55;;;;;;;7.13;2.70;;;;;;;16.72;74.94;101081.47;5305405;28;20031;-72
2022/06/19 09:24:53;;;;;;;11.57;3.55;;;;;;;16.63;73.88;101072.19;5307012;28;20093;-73
2022/06/19 09:27:31;;;;;;;8.43;2.75;;;;;;;16.70;73.98;101064.97;5289159;28;20024;-74
2022/06/19 09:30:13;;;;;;;6.20;2.75;;;;;;;16.83;73.06;101066.00;5284893;28;20034;-73
2022/06/19 09:32:52;;;;;;;7.75;4.35;;;;;;;16.87;74.20;101050.22;5285265;28;20434;-73
2022/06/19 09:35:38;;;;;;;7.78;4.95;;;;;;;16.89;71.58;101045.09;5302529;28;20380;-73
2022/06/19 09:38:13;;;;;;;9.23;3.42;;;;;;;16.83;72.64;101029.59;5306249;28;20150;-72
2022/06/19 09:40:52;;;;;;;9.05;2.50;;;;;;;16.86;71.07;101017.75;5302075;28;20390;-73
2022/06/19 09:43:44;;;;;;;11.63;3.45;;;;;;;17.11;71.42;101004.91;5306041;28;20066;-72
2022/06/19 09:46:22;;;;;;;11.05;3.17;;;;;;;17.03;70.39;100986.13;5285010;28;20021;-73
2022/06/19 09:49:02;;;;;;;9.93;2.85;;;;;;;17.27;71.05;100962.34;5284747;28;20043;-72
2022/06/19 09:51:33;;;;;;;8.73;2.58;;;;;;;17.15;71.59;100960.22;5284714;28;20480;-72
2022/06/19 09:54:18;;;;;;;13.20;4.25;;;;;;;17.08;70.73;100973.94;5296090;28;20036;-72
2022/06/19 09:57:09;;;;;;;10.13;2.85;;;;;;;17.10;70.96;100980.00;5286315;28;20111;-72
2022/06/19 09:59:50;;;;;;;9.80;5.20;;;;;;;17.07;70.67;100961.06;5296502;28;20024;-74
2022/06/19 10:02:46;;;;;;;8.82;2.80;;;;;;;17.27;70.57;100949.16;5291438;28;20111;-72
2022/06/19 10:05:42;;;;;;;9.25;3.63;;;;;;;17.36;71.36;100941.56;5293653;28;20085;-73
2022/06/19 10:08:19;;;;;;;9.35;2.78;;;;;;;17.29;70.30;100941.25;5304830;28;20043;-72
2022/06/19 10:10:57;;;;;;;7.97;3.40;;;;;;;17.44;70.23;100927.88;5303308;28;20528;-71
2022/06/19 10:13:56;;;;;;;11.23;3.03;;;;;;;17.86;70.25;100912.03;5305810;28;20063;-71
2022/06/19 10:16:36;;;;;;;10.80;3.92;;;;;;;17.79;69.33;100912.59;5289399;28;20072;-73
2022/06/19 10:19:19;;;;;;;9.70;3.00;;;;;;;17.74;68.56;100915.56;5297267;28;20044;-73
2022/06/19 10:22:14;;;;;;;9.57;3.00;;;;;;;17.82;68.04;100919.50;5282972;28;20376;-73
2022/06/19 10:24:57;;;;;;;9.20;2.80;;;;;;;17.67;65.41;100912.44;5297766;28;20149;-74
2022/06/19 10:27:38;;;;;;;6.38;2.88;;;;;;;17.72;63.08;100906.66;5305342;28;20434;-72
2022/06/19 10:30:15;;;;;;;32.53;23.33;;;;;;;17.73;62.86;100916.69;5302835;28;20044;-73
2022/06/19 10:33:18;;;;;;;6.57;2.90;;;;;;;18.00;62.74;100939.88;5304277;28;20459;-72
2022/06/19 10:36:04;;;;;;;6.97;3.03;;;;;;;18.08;62.98;100944.63;5284644;28;20381;-72
2022/06/19 10:39:05;;;;;;;6.03;2.17;;;;;;;18.16;63.25;100943.75;5283262;28;20495;-72
2022/06/19 10:42:01;;;;;;;6.30;2.28;;;;;;;18.14;62.98;100923.63;5283119;28;20059;-74
2022/06/19 10:44:43;;;;;;;6.40;2.30;;;;;;;18.39;62.94;100913.38;5294630;28;20032;-72
2022/06/19 10:47:29;;;;;;;7.38;2.42;;;;;;;18.53;61.88;100926.34;5284324;28;20443;-72
2022/06/19 10:50:00;;;;;;;6.35;2.40;;;;;;;18.55;61.26;100919.22;5292766;28;20078;-72
2022/06/19 10:52:56;;;;;;;6.65;2.00;;;;;;;18.64;57.59;100925.59;5298401;28;20073;-72
2022/06/19 10:55:37;;;;;;;;;;;;;;;19.01;57.59;100961.50;5290776;28;20035;-72
2022/06/19 10:58:21;;;;;;;6.82;2.20;;;;;;;18.87;55.78;100984.28;5290455;28;19967;-72
2022/06/19 11:01:05;;;;;;;5.35;1.40;;;;;;;18.78;54.60;100980.72;5299240;28;20024;-73
2022/06/19 11:06:37;;;;;;;7.10;2.15;;;;;;;18.69;55.64;100980.75;5299469;28;20451;-72
2022/06/19 11:09:32;;;;;;;8.30;2.42;;;;;;;18.90;55.99;100978.78;5282669;28;20091;-73
2022/06/19 11:12:17;;;;;;;6.47;2.47;;;;;;;19.10;55.65;100979.94;5295868;28;20102;-72
2022/06/19 11:14:54;;;;;;;6.28;2.53;;;;;;;19.21;55.22;100976.72;5290542;28;20472;-73
2022/06/19 11:17:39;;;;;;;6.38;2.17;;;;;;;19.44;54.65;100988.41;5296362;28;20030;-72
2022/06/19 11:20:16;;;;;;;3.47;1.92;;;;;;;19.50;54.22;101013.13;5299628;28;20031;-72
2022/06/19 11:22:49;;;;;;;6.43;4.20;;;;;;;19.52;54.40;101018.41;5298438;28;20348;-72
2022/06/19 11:25:20;;;;;;;6.68;2.33;;;;;;;19.38;53.94;101010.28;5289315;28;20479;-73
2022/06/19 11:27:53;;;;;;;6.80;2.27;;;;;;;19.54;54.51;101002.84;5294839;28;20042;-72
2022/06/19 11:30:31;;;;;;;9.10;4.45;;;;;;;19.59;55.08;101009.44;5288401;28;20306;-74
2022/06/19 11:33:09;;;;;;;3.35;2.00;;;;;;;19.60;53.54;101016.69;5292311;28;20058;-72
2022/06/19 11:35:45;;;;;;;6.55;2.00;;;;;;;19.73;55.04;101022.03;5290094;28;20016;-73
2022/06/19 11:38:36;;;;;;;8.05;4.40;;;;;;;19.67;54.34;101022.59;5296955;28;20051;-72
2022/06/19 11:41:16;;;;;;;4.63;2.25;;;;;;;19.76;55.13;101020.50;5287156;28;20088;-72
2022/06/19 11:44:12;;;;;;;5.97;2.25;;;;;;;19.77;54.69;100999.66;5292962;28;20107;-72
2022/06/19 11:46:46;;;;;;;5.03;2.47;;;;;;;19.83;53.16;101011.50;5299031;28;20024;-74
2022/06/19 11:49:29;;;;;;;6.47;2.00;;;;;;;19.86;53.71;101019.25;5281623;28;20039;-73
2022/06/19 11:52:03;;;;;;;5.28;2.05;;;;;;;19.98;53.92;101030.53;5289904;28;20476;-73
2022/06/19 11:54:42;;;;;;;5.72;2.60;;;;;;;19.71;53.43;101044.06;5287783;28;20037;-71
2022/06/19 11:57:30;;;;;;;6.25;2.10;;;;;;;19.92;54.08;101048.81;5290401;28;20437;-73
2022/06/19 12:00:05;;;;;;;5.18;2.13;;;;;;;19.71;54.29;101057.28;5291205;28;20055;-73
2022/06/19 12:02:40;;;;;;;6.05;2.08;;;;;;;19.78;53.85;101054.75;5299033;28;20054;-72
2022/06/19 12:05:31;;;;;;;5.93;2.15;;;;;;;19.93;54.17;101070.97;5286647;28;20066;-73
2022/06/19 12:08:17;;;;;;;3.75;2.28;;;;;;;19.82;53.63;101081.03;5290822;28;20029;-71
2022/06/19 12:10:55;;;;;;;5.88;2.90;;;;;;;19.79;53.60;101081.75;5291346;28;20136;-73
2022/06/19 12:13:33;;;;;;;7.15;2.28;;;;;;;19.74;54.55;101107.28;5296087;28;20419;-73
2022/06/19 12:16:19;;;;;;;7.22;2.17;;;;;;;19.89;53.84;101126.31;5294120;28;20029;-73
2022/06/19 12:18:51;;;;;;;6.20;2.40;;;;;;;19.93;54.76;101141.34;5285611;28;20055;-72
2022/06/19 12:21:28;;;;;;;6.00;2.40;;;;;;;19.87;56.45;101153.19;5295615;28;20505;-73
2022/06/19 12:24:05;;;;;;;5.65;2.70;;;;;;;19.79;57.13;101162.50;5289233;28;20787;-71
2022/06/19 12:26:45;;;;;;;5.70;2.53;;;;;;;19.86;57.29;101152.31;5297949;28;20391;-72
2022/06/19 12:29:29;;;;;;;5.60;2.38;;;;;;;19.67;56.21;101177.34;5288429;28;20443;-72
2022/06/19 12:32:06;;;;;;;6.85;2.90;;;;;;;19.61;56.47;101192.72;5290545;28;20384;-72
2022/06/19 12:34:41;;;;;;;5.00;2.13;;;;;;;19.57;56.16;101191.78;5290609;28;20471;-72
2022/06/19 12:37:20;;;;;;;18.25;11.73;;;;;;;19.70;57.02;101185.09;5287076;28;20024;-72
2022/06/19 12:39:52;;;;;;;7.43;2.45;;;;;;;19.69;59.13;101178.66;5291689;28;20028;-72
2022/06/19 12:42:48;;;;;;;8.02;2.33;;;;;;;19.65;58.08;101188.91;5287918;28;20024;-72
2022/06/19 12:45:36;;;;;;;5.93;2.63;;;;;;;19.44;62.61;101199.31;5290925;28;20467;-73
2022/06/19 12:48:32;;;;;;;8.07;2.55;;;;;;;19.42;62.54;101191.22;5293319;28;20472;-72
2022/06/19 12:51:21;;;;;;;5.88;2.38;;;;;;;19.45;63.98;101201.78;5285126;28;20107;-73
2022/06/19 12:54:00;;;;;;;7.68;3.17;;;;;;;19.33;64.11;101212.97;5294497;28;20523;-72
2022/06/19 12:57:14;;;;;;;5.88;3.20;;;;;;;19.36;64.45;101215.09;5300216;28;20024;-71
2022/06/19 13:00:02;;;;;;;7.47;2.58;;;;;;;19.35;63.71;101207.81;5305505;28;20081;-71
2022/06/19 13:02:58;;;;;;;8.25;2.90;;;;;;;19.25;63.73;101186.56;5299373;28;20024;-72
2022/06/19 13:05:40;;;;;;;6.95;3.05;;;;;;;19.10;64.27;101171.09;5285186;28;20506;-71
2022/06/19 13:08:26;;;;;;;8.23;3.47;;;;;;;19.07;64.69;101157.72;5288690;28;20042;-71
2022/06/19 13:11:03;;;;;;;7.93;3.28;;;;;;;19.08;64.26;101145.31;5306335;28;20024;-71
2022/06/19 13:14:04;;;;;;;5.55;2.83;;;;;;;19.02;64.83;101143.88;5305889;28;20030;-72
2022/06/19 13:16:59;;;;;;;7.70;4.25;;;;;;;19.11;63.92;101135.38;5306645;28;20116;-72
2022/06/19 13:19:54;;;;;;;10.27;3.88;;;;;;;19.05;64.54;101146.00;5257278;28;20040;-71
2022/06/19 13:22:42;;;;;;;6.53;2.85;;;;;;;18.96;65.42;101147.19;5305820;28;20047;-72
2022/06/19 13:25:36;;;;;;;7.70;2.45;;;;;;;18.86;65.84;101170.88;5285935;28;20017;-71
2022/06/19 13:28:20;;;;;;;9.50;3.13;;;;;;;18.67;68.68;101188.94;5284553;28;20025;-70
2022/06/19 13:31:12;;;;;;;9.02;3.15;;;;;;;18.47;68.83;101234.63;5285199;28;20060;-71
2022/06/19 13:33:50;;;;;;;8.90;4.07;;;;;;;18.47;70.62;101271.94;5285331;28;20376;-70
2022/06/19 13:36:57;;;;;;;11.88;3.53;;;;;;;18.28;71.98;101282.72;5284150;28;20025;-72
2022/06/19 13:39:44;;;;;;;11.40;3.35;;;;;;;18.23;70.99;101286.50;5288528;28;20056;-71
2022/06/19 13:42:50;;;;;;;12.55;3.50;;;;;;;18.33;73.13;101290.97;5288964;28;20388;-72
2022/06/19 13:45:40;;;;;;;8.77;3.45;;;;;;;18.30;71.64;101310.44;5285876;28;20093;-72
2022/06/19 13:48:23;;;;;;;10.63;3.03;;;;;;;18.11;71.37;101313.59;5294128;28;20118;-72
2022/06/19 13:51:23;;;;;;;9.20;2.78;;;;;;;18.18;70.54;101317.56;5305342;28;20137;-72
2022/06/19 13:54:14;;;;;;;10.07;3.55;;;;;;;18.31;69.88;101306.50;5290227;28;20020;-72
2022/06/19 13:57:02;;;;;;;11.75;3.38;;;;;;;18.28;70.36;101293.94;5304684;28;20020;-72
2022/06/19 13:59:55;;;;;;;9.55;4.03;;;;;;;18.24;69.05;101288.16;5297922;28;20472;-72
2022/06/19 14:03:22;;;;;;;11.63;5.13;;;;;;;18.52;68.83;101299.03;5284596;28;20383;-71
2022/06/19 14:05:54;;;;;;;6.05;2.75;;;;;;;18.38;68.35;101281.53;5199741;28;20036;-71
2022/06/19 14:08:48;;;;;;;11.85;3.00;;;;;;;18.48;68.35;101272.75;5199549;28;20529;-72
2022/06/19 14:11:24;;;;;;;16.23;13.25;;;;;;;18.66;68.17;101265.13;5269036;28;20067;-71
2022/06/19 14:14:02;;;;;;;7.50;3.00;;;;;;;18.62;67.59;101248.13;5284603;28;20029;-72
2022/06/19 14:16:41;;;;;;;7.75;2.85;;;;;;;18.44;66.90;101252.97;5285041;28;20044;-72
2022/06/19 14:19:37;;;;;;;7.72;2.85;;;;;;;18.46;66.64;101244.22;5284349;28;20034;-72
2022/06/19 14:22:14;;;;;;;6.25;2.72;;;;;;;18.59;67.47;101243.19;5284225;28;20459;-72
2022/06/19 14:25:10;;;;;;;7.55;2.80;;;;;;;18.74;66.82;101244.63;5283203;28;20067;-72
2022/06/19 14:28:08;;;;;;;14.18;10.82;;;;;;;18.75;66.69;101232.25;5284186;28;20468;-71
2022/06/19 14:31:08;;;;;;;7.15;3.35;;;;;;;18.82;66.15;101246.59;5284298;28;20066;-72
2022/06/19 14:33:45;;;;;;;9.13;4.72;;;;;;;19.05;66.29;101251.97;5281380;28;20127;-72
2022/06/19 14:36:18;;;;;;;7.30;3.92;;;;;;;19.13;66.49;101258.72;5287325;28;20036;-70
2022/06/19 14:39:12;;;;;;;10.88;4.53;;;;;;;19.07;66.36;101258.91;5304185;28;20111;-71
2022/06/19 14:41:43;;;;;;;10.15;4.25;;;;;;;18.96;66.55;101268.88;5278316;28;20032;-72
2022/06/19 14:44:19;;;;;;;9.02;2.88;;;;;;;18.95;67.50;101244.75;5283948;28;20085;-72
2022/06/19 14:46:56;;;;;;;5.80;2.35;;;;;;;18.72;67.77;101240.50;5283019;28;20407;-72
2022/06/19 14:49:55;;;;;;;7.90;2.30;;;;;;;18.64;67.82;101257.03;5284005;28;20052;-72
2022/06/19 14:52:55;;;;;;;9.45;2.92;;;;;;;18.66;67.89;101254.72;5290861;28;20113;-72
2022/06/19 14:55:48;;;;;;;8.85;2.90;;;;;;;18.37;68.09;101255.44;5304878;28;20027;-72
2022/06/19 14:58:27;;;;;;;5.72;2.33;;;;;;;18.30;68.76;101243.06;5304109;28;20040;-71
2022/06/19 15:01:02;;;;;;;8.57;3.05;;;;;;;18.12;68.61;101248.69;5303867;28;20439;-71
2022/06/19 15:03:49;;;;;;;12.32;3.35;;;;;;;18.11;68.68;101207.75;5291045;28;20106;-72
2022/06/19 15:06:45;;;;;;;11.00;6.35;;;;;;;18.31;67.74;101168.94;5298710;28;20024;-71
2022/06/19 15:09:34;;;;;;;;;;;;;;;18.57;66.15;101161.22;5290404;28;20043;-71
2022/06/19 15:12:10;;;;;;;7.75;2.65;;;;;;;18.76;66.76;101131.94;5304467;28;20348;-71
2022/06/19 15:14:51;;;;;;;8.45;2.90;;;;;;;18.96;66.33;101138.75;5303746;28;20020;-72
2022/06/19 15:17:34;;;;;;;6.45;2.42;;;;;;;18.88;66.13;101110.38;5303864;28;20039;-71
2022/06/19 15:20:25;;;;;;;6.53;2.00;;;;;;;19.19;65.59;101099.94;5303504;28;20021;-72
2022/06/19 15:23:17;;;;;;;9.65;2.80;;;;;;;18.97;65.76;101113.16;5284092;28;20035;-72
2022/06/19 15:25:49;;;;;;;5.38;3.33;;;;;;;18.84;65.67;101114.19;5300935;28;20095;-71
2022/06/19 15:28:38;;;;;;;9.05;3.10;;;;;;;19.03;65.34;101088.47;5303388;28;20119;-72
2022/06/19 15:31:18;;;;;;;10.05;3.75;;;;;;;18.74;65.16;101044.31;5304067;28;20028;-71
2022/06/19 15:33:55;;;;;;;4.50;2.20;;;;;;;18.86;65.50;101019.97;5304052;28;20423;-72
2022/06/19 15:36:32;;;;;;;7.13;2.92;;;;;;;18.88;65.85;101009.22;5281824;28;20020;-70
2022/06/19 15:39:11;;;;;;;9.45;2.60;;;;;;;19.15;64.90;101014.63;5282505;28;20499;-71
2022/06/19 15:41:50;;;;;;;5.22;3.17;;;;;;;19.27;65.47;101052.06;5286366;28;20059;-71
2022/06/19 15:44:23;;;;;;;7.22;2.45;;;;;;;19.41;64.29;101063.03;5293512;28;20052;-71
2022/06/19 15:47:15;;;;;;;8.90;3.20;;;;;;;19.42;64.47;101064.66;5303673;28;20028;-71
2022/06/19 15:49:57;;;;;;;4.18;2.08;;;;;;;19.26;64.35;101058.03;5282213;28;20075;-72
2022/06/19 15:52:37;;;;;;;4.53;2.60;;;;;;;19.07;64.14;101059.34;5282628;28;20434;-72
2022/06/19 15:55:36;;;;;;;5.05;2.65;;;;;;;18.99;64.15;101036.91;5282146;28;20384;-71
2022/06/19 15:58:19;;;;;;;7.50;2.22;;;;;;;18.94;64.74;101031.50;5282511;28;20045;-72
2022/06/19 16:01:09;;;;;;;6.07;2.58;;;;;;;19.08;64.20;101040.50;5295299;28;20049;-71
2022/06/19 16:03:46;;;;;;;5.22;2.50;;;;;;;18.88;64.71;101056.97;5302949;28;20047;-72
2022/06/19 16:06:26;;;;;;;5.03;2.13;;;;;;;19.15;64.50;101090.53;5303614;28;20055;-71
2022/06/19 16:09:03;;;;;;;6.10;2.33;;;;;;;18.96;62.92;101122.72;5303331;28;20024;-73
2022/06/19 16:12:00;;;;;;;4.15;2.13;;;;;;;18.95;63.14;101160.44;5302840;28;20028;-71
2022/06/19 16:14:31;;;;;;;;;;;;;;;19.19;61.92;101159.78;5303276;28;20535;-71
2022/06/19 16:17:22;;;;;;;5.77;2.17;;;;;;;18.93;63.52;101157.13;5282803;28;19991;-71
2022/06/19 16:20:15;;;;;;;5.47;2.20;;;;;;;19.01;63.98;101161.88;5284958;28;20484;-71
2022/06/19 16:22:47;;;;;;;6.03;2.45;;;;;;;19.02;63.16;101149.50;5286824;28;20021;-71
2022/06/19 16:25:31;;;;;;;6.28;1.98;;;;;;;19.31;63.59;101151.44;5285746;28;20033;-71
2022/06/19 16:28:13;;;;;;;7.65;5.90;;;;;;;19.54;61.59;101153.91;5286572;28;20024;-71
2022/06/19 16:30:48;;;;;;;5.80;2.97;;;;;;;19.64;61.96;101152.69;5285985;28;20033;-71
2022/06/19 16:33:22;;;;;;;5.05;2.00;;;;;;;19.58;61.51;101160.47;5300432;28;20031;-71
2022/06/19 16:44:41;;;;;;;3.35;1.75;;;;;;;19.75;60.32;101187.69;5306875;28;20032;-71
2022/06/19 16:47:18;;;;;;;7.70;1.77;;;;;;;19.94;59.42;101179.59;5306665;28;20028;-70
2022/06/19 16:50:02;;;;;;;3.55;1.95;;;;;;;19.87;59.30;101176.50;5293494;28;20060;-71
2022/06/19 16:52:36;;;;;;;3.90;1.70;;;;;;;19.92;58.92;101176.28;5295029;28;20028;-70
2022/06/19 16:55:14;;;;;;;3.10;1.60;;;;;;;19.94;59.08;101179.59;5307336;28;20086;-71
2022/06/19 16:58:13;;;;;;;3.85;1.90;;;;;;;19.94;58.61;101173.13;5306821;28;20056;-71
2022/06/19 17:01:03;;;;;;;4.15;1.70;;;;;;;19.93;58.95;101182.75;5299503;28;20444;-71
2022/06/19 17:03:52;;;;;;;5.28;1.80;;;;;;;19.97;58.70;101183.72;5302887;28;20103;-70
2022/06/19 17:06:31;;;;;;;4.25;2.30;;;;;;;19.74;59.28;101188.88;5304860;28;20043;-70
2022/06/19 17:09:15;;;;;;;6.38;1.80;;;;;;;19.73;59.06;101201.28;5306894;28;20467;-71
2022/06/19 17:11:54;;;;;;;4.68;2.20;;;;;;;19.93;58.90;101192.00;5307079;28;20031;-70
2022/06/19 17:14:37;;;;;;;4.22;2.50;;;;;;;20.09;58.83;101192.19;5306005;28;20539;-71
2022/06/19 17:17:17;;;;;;;4.55;2.10;;;;;;;19.82;58.75;101193.59;5306789;28;20024;-70
2022/06/19 17:20:00;;;;;;;3.80;1.52;;;;;;;19.76;58.75;101197.78;5288698;28;20111;-70
2022/06/19 17:22:34;;;;;;;3.45;1.50;;;;;;;19.58;58.82;101201.88;5285741;28;20028;-70
2022/06/19 17:25:08;;;;;;;2.63;1.80;;;;;;;19.53;58.84;101203.72;5286172;28;20020;-72
2022/06/19 17:27:58;;;;;;;6.60;2.30;;;;;;;19.30;59.74;101208.00;5284821;28;20032;-71
2022/06/19 17:30:41;;;;;;;5.72;2.20;;;;;;;19.36;60.51;101209.47;5284848;28;20059;-71
